»·PEaware :: N33QM KMOD-KMMH

N33QM :: KMOD-KMMH

FLIGHT INFORMATION

Flight Status: Arrived
Operator: Privately registered:
United States
More flights under this callsign
Pilot: Matthew A. (24018)
Aircraft: CESSNA 172 SKYHAWK
(C172)
More flights by this aircraft type
Origin: KMOD Modesto City-Co-Sham
United States
Destination: KMMH Mammoth Yosemite
United States
More flights between these airports :: More routes between these airports
Route: +
File this flight plan on PilotEdge
Remarks:
Altitude:
(Current/Filed)
13,500ft
Speed:
(Current/Filed)
100kts
Departed: 20-Apr-19 07:48 AM
Arrived: 20-Apr-19 08:58 AM
Distance/Time
Traveled:
101nm/1:10
Distance/Time
To Go:
Arrived

Flight Plot

Page will automatically refresh every two minutes.

Flight plan parsing failed; only flown route is shown


Map Options




Map Legend


Flown Route
Filed Route
Departure Airport
Arrival Airport
Navaid (VOR, NDB)
Fix

Horizontal Profiles

Position Reports

Time Latitude Longitude Heading Altitude Ground
Speed
20-Apr-19 07:45 37.621207 -120.942944 199 79ft 0kts
20-Apr-19 07:46 37.621207 -120.942944 199 79ft 0kts
20-Apr-19 07:47 37.620994 -120.943873 299 78ft 8kts
20-Apr-19 07:48 37.630544 -120.962694 304 793ft 79kts
20-Apr-19 07:49 37.644500 -120.984318 322 1778ft 82kts
20-Apr-19 07:50 37.665437 -120.991079 9 2726ft 81kts
20-Apr-19 07:51 37.687398 -120.993223 340 3658ft 79kts
20-Apr-19 07:52 37.707690 -121.003987 333 4557ft 79kts
20-Apr-19 07:53 37.728548 -121.012641 352 5442ft 82kts
20-Apr-19 07:54 37.751273 -121.009353 24 6258ft 90kts
20-Apr-19 07:55 37.763345 -120.979896 68 7034ft 99kts
20-Apr-19 07:56 37.770494 -120.945448 75 7773ft 103kts
20-Apr-19 07:57 37.775856 -120.909066 76 8471ft 106kts
20-Apr-19 07:58 37.780240 -120.871558 84 9131ft 109kts
20-Apr-19 07:59 37.783553 -120.833271 88 9755ft 110kts
20-Apr-19 08:00 37.788081 -120.794634 88 10351ft 110kts
20-Apr-19 08:01 37.798400 -120.757690 56 10898ft 114kts
20-Apr-19 08:01 37.813518 -120.730006 56 11327ft 116kts
20-Apr-19 08:03 37.835709 -120.691459 58 11898ft 116kts
20-Apr-19 08:04 37.851435 -120.655954 69 12346ft 116kts
20-Apr-19 08:05 37.862624 -120.617832 76 12765ft 116kts
20-Apr-19 08:06 37.873883 -120.579459 79 13151ft 116kts
20-Apr-19 08:07 37.880967 -120.539450 87 13481ft 119kts
20-Apr-19 08:08 37.886974 -120.495919 86 13499ft 127kts
20-Apr-19 08:08 37.891919 -120.459389 87 13502ft 126kts
20-Apr-19 08:10 37.898933 -120.408618 91 13523ft 123kts
20-Apr-19 08:10 37.902363 -120.372566 91 13524ft 124kts
20-Apr-19 08:12 37.902586 -120.323112 103 13522ft 119kts
20-Apr-19 08:12 37.900631 -120.288006 103 13522ft 119kts
20-Apr-19 08:13 37.898314 -120.246058 103 13522ft 119kts
20-Apr-19 08:14 37.895825 -120.204229 113 13517ft 116kts
20-Apr-19 08:15 37.887221 -120.165123 115 13521ft 115kts
20-Apr-19 08:17 37.877972 -120.119007 114 13520ft 116kts
20-Apr-19 08:17 37.871499 -120.086059 114 13519ft 116kts
20-Apr-19 08:18 37.863767 -120.046126 114 13509ft 116kts
20-Apr-19 08:19 37.856123 -120.006538 114 13508ft 116kts
20-Apr-19 08:20 37.848468 -119.966778 113 13507ft 116kts
20-Apr-19 08:21 37.840723 -119.927123 114 13507ft 116kts
20-Apr-19 08:22 37.833045 -119.887530 114 13506ft 116kts
20-Apr-19 08:23 37.825317 -119.847781 114 13505ft 116kts
20-Apr-19 08:24 37.817590 -119.808123 114 13504ft 116kts
20-Apr-19 08:25 37.806838 -119.771238 146 13504ft 104kts
20-Apr-19 08:26 37.785152 -119.747238 148 13504ft 103kts
20-Apr-19 08:27 37.763564 -119.723445 149 13512ft 103kts
20-Apr-19 08:28 37.743230 -119.697795 122 13522ft 112kts
20-Apr-19 08:29 37.733194 -119.660223 119 13537ft 113kts
20-Apr-19 08:30 37.723299 -119.622477 118 13553ft 113kts
20-Apr-19 08:31 37.709362 -119.588551 132 13567ft 107kts
20-Apr-19 08:32 37.693406 -119.556378 132 13581ft 107kts
20-Apr-19 08:33 37.677067 -119.523722 132 13574ft 114kts
20-Apr-19 08:34 37.659614 -119.489628 130 13570ft 117kts
20-Apr-19 08:35 37.646984 -119.450318 120 13571ft 121kts
20-Apr-19 08:36 37.634914 -119.410694 120 13571ft 121kts
20-Apr-19 08:37 37.622821 -119.370970 120 13571ft 121kts
20-Apr-19 08:38 37.609123 -119.332624 130 13568ft 117kts
20-Apr-19 08:39 37.592884 -119.296902 130 13568ft 117kts
20-Apr-19 08:40 37.576682 -119.261202 130 13568ft 117kts
20-Apr-19 08:41 37.560491 -119.225582 130 13569ft 117kts
20-Apr-19 08:42 37.545645 -119.189438 117 13620ft 118kts
20-Apr-19 08:43 37.546279 -119.147087 59 13591ft 139kts
20-Apr-19 08:44 37.573336 -119.112758 40 13620ft 139kts
20-Apr-19 08:45 37.604240 -119.082784 39 13610ft 140kts
20-Apr-19 08:46 37.634069 -119.051941 42 13367ft 134kts
20-Apr-19 08:47 37.660592 -119.020366 46 12258ft 129kts
20-Apr-19 08:48 37.672494 -118.981173 89 11029ft 120kts
20-Apr-19 08:49 37.674982 -118.938965 94 9819ft 118kts
20-Apr-19 08:50 37.676179 -118.898913 78 8903ft 113kts
20-Apr-19 08:51 37.678695 -118.862479 151 8275ft 93kts
20-Apr-19 08:52 37.655912 -118.852371 168 8114ft 87kts
20-Apr-19 08:53 37.635368 -118.838505 102 8051ft 102kts
20-Apr-19 08:54 37.635150 -118.802240 102 7920ft 101kts
20-Apr-19 08:55 37.618606 -118.798960 217 7624ft 70kts
20-Apr-19 08:56 37.618713 -118.819075 283 7258ft 63kts
20-Apr-19 08:57 37.622903 -118.831989 4 7087ft 13kts

Navigation Log

Ident Type
Flight plan parsing failed, navigation log unavailable